sensor_id;sensor_type;location;lat;lon;timestamp;temperature;humidity
18898;DHT22;9581;49.484;8.556;2022-12-17T00:01:43;-4.20;99.90
18898;DHT22;9581;49.484;8.556;2022-12-17T00:04:27;-4.20;99.90
18898;DHT22;9581;49.484;8.556;2022-12-17T00:07:11;-4.10;99.90
18898;DHT22;9581;49.484;8.556;2022-12-17T00:09:55;-4.10;99.90
18898;DHT22;9581;49.484;8.556;2022-12-17T00:12:39;-4.50;99.90
18898;DHT22;9581;49.484;8.556;2022-12-17T00:15:39;-4.60;99.90
18898;DHT22;9581;49.484;8.556;2022-12-17T00:18:23;-4.70;99.90
18898;DHT22;9581;49.484;8.556;2022-12-17T00:21:08;-4.80;99.90
18898;DHT22;9581;49.484;8.556;2022-12-17T00:23:52;-4.90;99.90
18898;DHT22;9581;49.484;8.556;2022-12-17T00:26:36;-4.60;99.90
18898;DHT22;9581;49.484;8.556;2022-12-17T00:29:21;-4.20;99.90
18898;DHT22;9581;49.484;8.556;2022-12-17T00:32:08;-4.60;99.90
18898;DHT22;9581;49.484;8.556;2022-12-17T00:34:52;-4.70;99.90
18898;DHT22;9581;49.484;8.556;2022-12-17T00:37:36;-4.20;99.90
18898;DHT22;9581;49.484;8.556;2022-12-17T00:40:20;-4.10;99.90
18898;DHT22;9581;49.484;8.556;2022-12-17T00:43:06;-4.00;99.90
18898;DHT22;9581;49.484;8.556;2022-12-17T00:45:51;-3.90;99.90
18898;DHT22;9581;49.484;8.556;2022-12-17T00:48:38;-3.80;99.90
18898;DHT22;9581;49.484;8.556;2022-12-17T00:51:23;-3.90;99.90
18898;DHT22;9581;49.484;8.556;2022-12-17T00:54:07;-4.20;99.90
18898;DHT22;9581;49.484;8.556;2022-12-17T00:56:51;-4.10;99.90
18898;DHT22;9581;49.484;8.556;2022-12-17T00:59:36;-4.00;99.90
18898;DHT22;9581;49.484;8.556;2022-12-17T01:02:20;-4.20;99.90
18898;DHT22;9581;49.484;8.556;2022-12-17T01:05:06;-4.20;99.90
18898;DHT22;9581;49.484;8.556;2022-12-17T01:07:50;-4.40;99.90
18898;DHT22;9581;49.484;8.556;2022-12-17T01:10:35;-4.10;99.90
18898;DHT22;9581;49.484;8.556;2022-12-17T01:13:21;-4.10;99.90
18898;DHT22;9581;49.484;8.556;2022-12-17T01:16:08;-4.10;99.90
18898;DHT22;9581;49.484;8.556;2022-12-17T01:18:52;-4.10;99.90
18898;DHT22;9581;49.484;8.556;2022-12-17T01:21:38;-4.10;99.90
18898;DHT22;9581;49.484;8.556;2022-12-17T01:24:24;-4.40;99.90
18898;DHT22;9581;49.484;8.556;2022-12-17T01:27:08;-4.80;99.90
18898;DHT22;9581;49.484;8.556;2022-12-17T01:29:52;-4.60;99.90
18898;DHT22;9581;49.484;8.556;2022-12-17T01:32:37;-4.50;99.90
18898;DHT22;9581;49.484;8.556;2022-12-17T01:35:21;-4.60;99.90
18898;DHT22;9581;49.484;8.556;2022-12-17T01:38:10;-4.60;99.90
18898;DHT22;9581;49.484;8.556;2022-12-17T01:40:55;-4.80;99.90
18898;DHT22;9581;49.484;8.556;2022-12-17T01:43:39;-4.70;99.90
18898;DHT22;9581;49.484;8.556;2022-12-17T01:46:25;-4.50;99.90
18898;DHT22;9581;49.484;8.556;2022-12-17T01:49:11;-4.40;99.90
18898;DHT22;9581;49.484;8.556;2022-12-17T01:51:56;-4.40;99.90
18898;DHT22;9581;49.484;8.556;2022-12-17T01:54:43;-4.50;99.90
18898;DHT22;9581;49.484;8.556;2022-12-17T01:57:27;-4.80;99.90
18898;DHT22;9581;49.484;8.556;2022-12-17T02:00:14;-4.80;99.90
18898;DHT22;9581;49.484;8.556;2022-12-17T02:02:59;-4.70;99.90
18898;DHT22;9581;49.484;8.556;2022-12-17T02:06:03;-5.10;99.90
18898;DHT22;9581;49.484;8.556;2022-12-17T02:08:56;-4.70;99.90
18898;DHT22;9581;49.484;8.556;2022-12-17T02:11:48;-4.80;99.90
18898;DHT22;9581;49.484;8.556;2022-12-17T02:14:40;-5.00;99.90
18898;DHT22;9581;49.484;8.556;2022-12-17T02:17:40;-5.10;99.90
18898;DHT22;9581;49.484;8.556;2022-12-17T02:20:30;-5.20;99.90
18898;DHT22;9581;49.484;8.556;2022-12-17T02:23:23;-5.00;99.90
18898;DHT22;9581;49.484;8.556;2022-12-17T02:26:15;-5.00;99.90
18898;DHT22;9581;49.484;8.556;2022-12-17T02:29:03;-5.30;99.90
18898;DHT22;9581;49.484;8.556;2022-12-17T02:31:48;-5.20;99.90
18898;DHT22;9581;49.484;8.556;2022-12-17T02:34:42;-4.90;99.90
18898;DHT22;9581;49.484;8.556;2022-12-17T02:37:27;-4.80;99.90
18898;DHT22;9581;49.484;8.556;2022-12-17T02:40:11;-5.30;99.90
18898;DHT22;9581;49.484;8.556;2022-12-17T02:42:55;-5.50;99.90
18898;DHT22;9581;49.484;8.556;2022-12-17T02:45:41;-5.50;99.90
18898;DHT22;9581;49.484;8.556;2022-12-17T02:48:26;-5.20;99.90
18898;DHT22;9581;49.484;8.556;2022-12-17T02:51:11;-5.10;99.90
18898;DHT22;9581;49.484;8.556;2022-12-17T02:54:00;-5.30;99.90
18898;DHT22;9581;49.484;8.556;2022-12-17T02:56:44;-5.30;99.90
18898;DHT22;9581;49.484;8.556;2022-12-17T02:59:28;-5.50;99.90
18898;DHT22;9581;49.484;8.556;2022-12-17T03:02:14;-5.20;99.90
18898;DHT22;9581;49.484;8.556;2022-12-17T03:04:59;-5.30;99.90
18898;DHT22;9581;49.484;8.556;2022-12-17T03:07:43;-5.20;99.90
18898;DHT22;9581;49.484;8.556;2022-12-17T03:10:28;-4.90;99.90
18898;DHT22;9581;49.484;8.556;2022-12-17T03:13:21;-5.10;99.90
18898;DHT22;9581;49.484;8.556;2022-12-17T03:16:09;-5.00;99.90
18898;DHT22;9581;49.484;8.556;2022-12-17T03:18:56;-4.90;99.90
18898;DHT22;9581;49.484;8.556;2022-12-17T03:21:40;-5.00;99.90
18898;DHT22;9581;49.484;8.556;2022-12-17T03:24:24;-5.10;99.90
18898;DHT22;9581;49.484;8.556;2022-12-17T03:27:08;-5.50;99.90
18898;DHT22;9581;49.484;8.556;2022-12-17T03:29:52;-5.40;99.90
18898;DHT22;9581;49.484;8.556;2022-12-17T03:32:36;-5.50;99.90
18898;DHT22;9581;49.484;8.556;2022-12-17T03:35:22;-5.20;99.90
18898;DHT22;9581;49.484;8.556;2022-12-17T03:38:07;-5.10;99.90
18898;DHT22;9581;49.484;8.556;2022-12-17T03:40:51;-5.10;99.90
18898;DHT22;9581;49.484;8.556;2022-12-17T03:43:35;-5.00;99.90
18898;DHT22;9581;49.484;8.556;2022-12-17T03:46:18;-5.30;99.90
18898;DHT22;9581;49.484;8.556;2022-12-17T03:49:03;-5.40;99.90
18898;DHT22;9581;49.484;8.556;2022-12-17T03:51:48;-5.50;99.90
18898;DHT22;9581;49.484;8.556;2022-12-17T03:54:32;-5.70;99.90
18898;DHT22;9581;49.484;8.556;2022-12-17T03:57:17;-5.70;99.90
18898;DHT22;9581;49.484;8.556;2022-12-17T04:00:01;-5.60;99.90
18898;DHT22;9581;49.484;8.556;2022-12-17T04:02:45;-5.50;99.90
18898;DHT22;9581;49.484;8.556;2022-12-17T04:05:29;-5.40;99.90
18898;DHT22;9581;49.484;8.556;2022-12-17T04:08:29;-5.40;99.90
18898;DHT22;9581;49.484;8.556;2022-12-17T04:11:13;-5.70;99.90
18898;DHT22;9581;49.484;8.556;2022-12-17T04:13:58;-5.80;99.90
18898;DHT22;9581;49.484;8.556;2022-12-17T04:16:42;-5.80;99.90
18898;DHT22;9581;49.484;8.556;2022-12-17T04:19:26;-6.00;99.90
18898;DHT22;9581;49.484;8.556;2022-12-17T04:22:11;-5.90;99.90
18898;DHT22;9581;49.484;8.556;2022-12-17T04:24:56;-5.70;99.90
18898;DHT22;9581;49.484;8.556;2022-12-17T04:27:40;-5.50;99.90
18898;DHT22;9581;49.484;8.556;2022-12-17T04:30:25;-5.50;99.90
18898;DHT22;9581;49.484;8.556;2022-12-17T04:33:09;-5.50;99.90
18898;DHT22;9581;49.484;8.556;2022-12-17T04:35:53;-5.70;99.90
18898;DHT22;9581;49.484;8.556;2022-12-17T04:38:42;-6.00;99.90
18898;DHT22;9581;49.484;8.556;2022-12-17T04:41:28;-6.10;99.90
18898;DHT22;9581;49.484;8.556;2022-12-17T04:44:12;-6.20;99.90
18898;DHT22;9581;49.484;8.556;2022-12-17T04:46:56;-6.20;99.90
18898;DHT22;9581;49.484;8.556;2022-12-17T04:49:41;-5.90;99.90
18898;DHT22;9581;49.484;8.556;2022-12-17T04:52:25;-6.30;99.90
18898;DHT22;9581;49.484;8.556;2022-12-17T04:55:09;-6.40;99.90
18898;DHT22;9581;49.484;8.556;2022-12-17T04:58:00;-6.40;99.90
18898;DHT22;9581;49.484;8.556;2022-12-17T05:00:45;-6.50;99.90
18898;DHT22;9581;49.484;8.556;2022-12-17T05:03:29;-6.30;99.90
18898;DHT22;9581;49.484;8.556;2022-12-17T05:06:13;-6.40;99.90
18898;DHT22;9581;49.484;8.556;2022-12-17T05:08:57;-6.10;99.90
18898;DHT22;9581;49.484;8.556;2022-12-17T05:11:41;-6.20;99.90
18898;DHT22;9581;49.484;8.556;2022-12-17T05:14:27;-6.00;99.90
18898;DHT22;9581;49.484;8.556;2022-12-17T05:17:10;-6.40;99.90
18898;DHT22;9581;49.484;8.556;2022-12-17T05:19:55;-6.20;99.90
18898;DHT22;9581;49.484;8.556;2022-12-17T05:22:39;-6.20;99.90
18898;DHT22;9581;49.484;8.556;2022-12-17T05:25:23;-6.20;99.90
18898;DHT22;9581;49.484;8.556;2022-12-17T05:28:07;-6.10;99.90
18898;DHT22;9581;49.484;8.556;2022-12-17T05:30:53;-6.30;99.90
18898;DHT22;9581;49.484;8.556;2022-12-17T05:33:49;-6.00;99.90
18898;DHT22;9581;49.484;8.556;2022-12-17T05:36:34;-5.90;99.90
18898;DHT22;9581;49.484;8.556;2022-12-17T05:39:18;-5.80;99.90
18898;DHT22;9581;49.484;8.556;2022-12-17T05:42:02;-6.00;99.90
18898;DHT22;9581;49.484;8.556;2022-12-17T05:44:47;-6.10;99.90
18898;DHT22;9581;49.484;8.556;2022-12-17T05:47:32;-5.80;99.90
18898;DHT22;9581;49.484;8.556;2022-12-17T05:50:16;-5.80;99.90
18898;DHT22;9581;49.484;8.556;2022-12-17T05:53:01;-5.60;99.90
18898;DHT22;9581;49.484;8.556;2022-12-17T05:55:48;-5.90;99.90
18898;DHT22;9581;49.484;8.556;2022-12-17T05:58:32;-6.30;99.90
18898;DHT22;9581;49.484;8.556;2022-12-17T06:01:16;-6.60;99.90
18898;DHT22;9581;49.484;8.556;2022-12-17T06:04:02;-6.70;99.90
18898;DHT22;9581;49.484;8.556;2022-12-17T06:06:46;-6.70;99.90
18898;DHT22;9581;49.484;8.556;2022-12-17T06:09:30;-6.60;99.90
18898;DHT22;9581;49.484;8.556;2022-12-17T06:12:14;-6.30;99.90
18898;DHT22;9581;49.484;8.556;2022-12-17T06:14:59;-6.00;99.90
18898;DHT22;9581;49.484;8.556;2022-12-17T06:17:51;-5.90;99.90
18898;DHT22;9581;49.484;8.556;2022-12-17T06:20:37;-5.90;99.90
18898;DHT22;9581;49.484;8.556;2022-12-17T06:23:21;-6.20;99.90
18898;DHT22;9581;49.484;8.556;2022-12-17T06:26:05;-6.10;99.90
18898;DHT22;9581;49.484;8.556;2022-12-17T06:28:50;-6.10;99.90
18898;DHT22;9581;49.484;8.556;2022-12-17T06:31:34;-6.20;99.90
18898;DHT22;9581;49.484;8.556;2022-12-17T06:34:19;-5.80;99.90
18898;DHT22;9581;49.484;8.556;2022-12-17T06:37:04;-5.90;99.90
18898;DHT22;9581;49.484;8.556;2022-12-17T06:39:49;-5.60;99.90
18898;DHT22;9581;49.484;8.556;2022-12-17T06:42:33;-5.40;99.90
18898;DHT22;9581;49.484;8.556;2022-12-17T06:45:14;-5.60;99.90
18898;DHT22;9581;49.484;8.556;2022-12-17T06:48:01;-5.60;99.90
18898;DHT22;9581;49.484;8.556;2022-12-17T06:50:46;-5.80;99.90
18898;DHT22;9581;49.484;8.556;2022-12-17T06:53:32;-6.20;99.90
18898;DHT22;9581;49.484;8.556;2022-12-17T06:56:16;-6.20;99.90
18898;DHT22;9581;49.484;8.556;2022-12-17T06:59:00;-6.10;99.90
18898;DHT22;9581;49.484;8.556;2022-12-17T07:01:44;-6.10;99.90
18898;DHT22;9581;49.484;8.556;2022-12-17T07:04:28;-6.10;99.90
18898;DHT22;9581;49.484;8.556;2022-12-17T07:07:13;-6.20;99.90
18898;DHT22;9581;49.484;8.556;2022-12-17T07:09:58;-6.10;99.90
18898;DHT22;9581;49.484;8.556;2022-12-17T07:12:42;-6.20;99.90
18898;DHT22;9581;49.484;8.556;2022-12-17T07:15:27;-6.10;99.90
18898;DHT22;9581;49.484;8.556;2022-12-17T07:18:11;-6.00;99.90
18898;DHT22;9581;49.484;8.556;2022-12-17T07:20:55;-5.90;99.90
18898;DHT22;9581;49.484;8.556;2022-12-17T07:23:39;-6.20;99.90
18898;DHT22;9581;49.484;8.556;2022-12-17T07:26:25;-6.10;99.90
18898;DHT22;9581;49.484;8.556;2022-12-17T07:29:09;-6.00;99.90
18898;DHT22;9581;49.484;8.556;2022-12-17T07:31:53;-5.80;99.90
18898;DHT22;9581;49.484;8.556;2022-12-17T07:34:37;-5.70;99.90
18898;DHT22;9581;49.484;8.556;2022-12-17T07:37:22;-5.90;99.90
18898;DHT22;9581;49.484;8.556;2022-12-17T07:40:02;-5.80;99.90
18898;DHT22;9581;49.484;8.556;2022-12-17T07:42:47;-5.60;99.90
18898;DHT22;9581;49.484;8.556;2022-12-17T07:45:31;-5.50;99.90
18898;DHT22;9581;49.484;8.556;2022-12-17T07:48:15;-6.00;99.90
18898;DHT22;9581;49.484;8.556;2022-12-17T07:51:00;-5.90;99.90
18898;DHT22;9581;49.484;8.556;2022-12-17T07:53:44;-5.60;99.90
18898;DHT22;9581;49.484;8.556;2022-12-17T07:56:28;-5.40;99.90
18898;DHT22;9581;49.484;8.556;2022-12-17T07:59:14;-5.30;99.90
18898;DHT22;9581;49.484;8.556;2022-12-17T08:01:58;-5.50;99.90
18898;DHT22;9581;49.484;8.556;2022-12-17T08:04:42;-5.40;99.90
18898;DHT22;9581;49.484;8.556;2022-12-17T08:07:26;-5.40;99.90
18898;DHT22;9581;49.484;8.556;2022-12-17T08:10:10;-5.40;99.90
18898;DHT22;9581;49.484;8.556;2022-12-17T08:12:55;-5.60;99.90
18898;DHT22;9581;49.484;8.556;2022-12-17T08:15:41;-5.20;99.90
18898;DHT22;9581;49.484;8.556;2022-12-17T08:18:25;-4.90;99.90
18898;DHT22;9581;49.484;8.556;2022-12-17T08:21:10;-4.60;99.90
18898;DHT22;9581;49.484;8.556;2022-12-17T08:23:54;-4.90;99.90
18898;DHT22;9581;49.484;8.556;2022-12-17T08:26:38;-4.80;99.90
18898;DHT22;9581;49.484;8.556;2022-12-17T08:29:22;-5.30;99.90
18898;DHT22;9581;49.484;8.556;2022-12-17T08:32:07;-5.20;99.90
18898;DHT22;9581;49.484;8.556;2022-12-17T08:34:48;-5.00;99.90
18898;DHT22;9581;49.484;8.556;2022-12-17T08:37:33;-4.80;99.90
18898;DHT22;9581;49.484;8.556;2022-12-17T08:40:17;-4.60;99.90
18898;DHT22;9581;49.484;8.556;2022-12-17T08:43:02;-4.40;99.90
18898;DHT22;9581;49.484;8.556;2022-12-17T08:45:47;-4.30;99.90
18898;DHT22;9581;49.484;8.556;2022-12-17T08:48:33;-4.30;99.90
18898;DHT22;9581;49.484;8.556;2022-12-17T08:51:17;-4.30;99.90
18898;DHT22;9581;49.484;8.556;2022-12-17T08:54:02;-4.20;99.90
18898;DHT22;9581;49.484;8.556;2022-12-17T08:56:47;-4.20;99.90
18898;DHT22;9581;49.484;8.556;2022-12-17T08:59:31;-4.10;99.90
18898;DHT22;9581;49.484;8.556;2022-12-17T09:02:16;-4.00;99.90
18898;DHT22;9581;49.484;8.556;2022-12-17T09:05:01;-4.10;99.90
18898;DHT22;9581;49.484;8.556;2022-12-17T09:07:46;-4.00;99.90
18898;DHT22;9581;49.484;8.556;2022-12-17T09:10:30;-3.90;99.90
18898;DHT22;9581;49.484;8.556;2022-12-17T09:13:14;-4.00;99.90
18898;DHT22;9581;49.484;8.556;2022-12-17T09:15:58;-3.90;99.90
18898;DHT22;9581;49.484;8.556;2022-12-17T09:18:42;-4.10;99.90
18898;DHT22;9581;49.484;8.556;2022-12-17T09:21:33;-4.00;99.90
18898;DHT22;9581;49.484;8.556;2022-12-17T09:24:18;-4.10;99.90
18898;DHT22;9581;49.484;8.556;2022-12-17T09:27:02;-4.10;99.90
18898;DHT22;9581;49.484;8.556;2022-12-17T09:29:46;-4.00;99.90
18898;DHT22;9581;49.484;8.556;2022-12-17T09:32:31;-4.20;99.90
18898;DHT22;9581;49.484;8.556;2022-12-17T09:35:20;-4.10;99.90
18898;DHT22;9581;49.484;8.556;2022-12-17T09:38:06;-3.70;99.90
18898;DHT22;9581;49.484;8.556;2022-12-17T09:40:50;-4.00;99.90
18898;DHT22;9581;49.484;8.556;2022-12-17T09:43:41;-4.10;99.90
18898;DHT22;9581;49.484;8.556;2022-12-17T09:46:32;-4.10;99.90
18898;DHT22;9581;49.484;8.556;2022-12-17T09:49:20;-4.10;99.90
18898;DHT22;9581;49.484;8.556;2022-12-17T09:52:16;-4.00;99.90
18898;DHT22;9581;49.484;8.556;2022-12-17T09:55:17;-4.00;99.90
18898;DHT22;9581;49.484;8.556;2022-12-17T09:58:03;-4.20;99.90
18898;DHT22;9581;49.484;8.556;2022-12-17T10:00:48;-5.00;99.90
18898;DHT22;9581;49.484;8.556;2022-12-17T10:03:34;-5.10;99.90
18898;DHT22;9581;49.484;8.556;2022-12-17T10:06:21;-4.80;99.90
18898;DHT22;9581;49.484;8.556;2022-12-17T10:09:10;-4.60;99.90
18898;DHT22;9581;49.484;8.556;2022-12-17T10:11:59;-4.40;99.90
18898;DHT22;9581;49.484;8.556;2022-12-17T10:14:45;-4.40;99.90
18898;DHT22;9581;49.484;8.556;2022-12-17T10:17:30;-4.30;99.90
18898;DHT22;9581;49.484;8.556;2022-12-17T10:20:20;-4.00;99.90
18898;DHT22;9581;49.484;8.556;2022-12-17T10:23:04;-3.80;99.90
18898;DHT22;9581;49.484;8.556;2022-12-17T10:25:51;-4.10;99.90
18898;DHT22;9581;49.484;8.556;2022-12-17T10:28:37;-4.00;99.90
18898;DHT22;9581;49.484;8.556;2022-12-17T10:31:22;-3.90;99.90
18898;DHT22;9581;49.484;8.556;2022-12-17T10:34:18;-4.10;99.90
18898;DHT22;9581;49.484;8.556;2022-12-17T10:37:04;-3.60;99.90
18898;DHT22;9581;49.484;8.556;2022-12-17T10:39:54;-3.70;99.90
18898;DHT22;9581;49.484;8.556;2022-12-17T10:42:39;-4.30;99.90
18898;DHT22;9581;49.484;8.556;2022-12-17T10:45:26;-4.20;99.90
18898;DHT22;9581;49.484;8.556;2022-12-17T10:48:19;-3.80;99.90
18898;DHT22;9581;49.484;8.556;2022-12-17T10:51:04;-3.50;99.90
18898;DHT22;9581;49.484;8.556;2022-12-17T10:53:49;-3.30;99.90
18898;DHT22;9581;49.484;8.556;2022-12-17T10:56:35;-3.30;99.90
18898;DHT22;9581;49.484;8.556;2022-12-17T10:59:29;-3.50;99.90
18898;DHT22;9581;49.484;8.556;2022-12-17T11:02:18;-3.20;99.90
18898;DHT22;9581;49.484;8.556;2022-12-17T11:05:12;-3.10;99.90
18898;DHT22;9581;49.484;8.556;2022-12-17T11:07:58;-3.00;99.90
18898;DHT22;9581;49.484;8.556;2022-12-17T11:10:49;-3.00;99.90
18898;DHT22;9581;49.484;8.556;2022-12-17T11:13:36;-3.50;99.90
18898;DHT22;9581;49.484;8.556;2022-12-17T11:16:25;-3.50;99.90
18898;DHT22;9581;49.484;8.556;2022-12-17T11:19:31;-3.30;99.90
18898;DHT22;9581;49.484;8.556;2022-12-17T11:22:22;-3.40;99.90
18898;DHT22;9581;49.484;8.556;2022-12-17T11:25:22;-3.20;99.90
18898;DHT22;9581;49.484;8.556;2022-12-17T11:28:18;-3.10;99.90
18898;DHT22;9581;49.484;8.556;2022-12-17T11:31:17;-2.90;99.90
18898;DHT22;9581;49.484;8.556;2022-12-17T11:34:11;-2.90;99.90
18898;DHT22;9581;49.484;8.556;2022-12-17T11:37:01;-2.80;99.90
18898;DHT22;9581;49.484;8.556;2022-12-17T11:39:56;-3.00;99.90
18898;DHT22;9581;49.484;8.556;2022-12-17T11:42:50;-2.90;99.90
18898;DHT22;9581;49.484;8.556;2022-12-17T11:45:46;-3.00;99.90
18898;DHT22;9581;49.484;8.556;2022-12-17T11:48:37;-3.00;99.90
18898;DHT22;9581;49.484;8.556;2022-12-17T11:51:26;-3.30;99.90
18898;DHT22;9581;49.484;8.556;2022-12-17T11:54:21;-3.20;99.90
18898;DHT22;9581;49.484;8.556;2022-12-17T11:57:16;-3.10;99.90
18898;DHT22;9581;49.484;8.556;2022-12-17T12:00:14;-3.00;99.90
18898;DHT22;9581;49.484;8.556;2022-12-17T12:03:08;-3.00;99.90
18898;DHT22;9581;49.484;8.556;2022-12-17T12:05:59;-3.00;99.90
18898;DHT22;9581;49.484;8.556;2022-12-17T12:08:51;-3.00;99.90
18898;DHT22;9581;49.484;8.556;2022-12-17T12:11:42;-2.70;99.90
18898;DHT22;9581;49.484;8.556;2022-12-17T12:14:35;-2.70;99.90
18898;DHT22;9581;49.484;8.556;2022-12-17T12:17:36;-2.60;99.90
18898;DHT22;9581;49.484;8.556;2022-12-17T12:20:45;-2.90;99.90
18898;DHT22;9581;49.484;8.556;2022-12-17T12:23:44;-3.00;99.90
18898;DHT22;9581;49.484;8.556;2022-12-17T12:26:40;-2.90;99.90
18898;DHT22;9581;49.484;8.556;2022-12-17T12:29:29;-2.80;99.90
18898;DHT22;9581;49.484;8.556;2022-12-17T12:32:20;-2.50;99.90
18898;DHT22;9581;49.484;8.556;2022-12-17T12:35:12;-2.60;99.90
18898;DHT22;9581;49.484;8.556;2022-12-17T12:37:59;-2.50;99.90
18898;DHT22;9581;49.484;8.556;2022-12-17T12:40:47;-2.60;99.90
18898;DHT22;9581;49.484;8.556;2022-12-17T12:43:39;-2.50;99.90
18898;DHT22;9581;49.484;8.556;2022-12-17T12:46:29;-2.60;99.90
18898;DHT22;9581;49.484;8.556;2022-12-17T12:49:19;-2.60;99.90
18898;DHT22;9581;49.484;8.556;2022-12-17T12:52:04;-2.90;99.90
18898;DHT22;9581;49.484;8.556;2022-12-17T12:54:51;-2.60;99.90
18898;DHT22;9581;49.484;8.556;2022-12-17T12:57:38;-2.60;99.90
18898;DHT22;9581;49.484;8.556;2022-12-17T13:00:28;-2.90;99.90
18898;DHT22;9581;49.484;8.556;2022-12-17T13:03:23;-2.70;99.90
18898;DHT22;9581;49.484;8.556;2022-12-17T13:06:08;-2.60;99.90
18898;DHT22;9581;49.484;8.556;2022-12-17T13:08:36;-2.60;99.90
18898;DHT22;9581;49.484;8.556;2022-12-17T13:11:11;-2.60;99.90
18898;DHT22;9581;49.484;8.556;2022-12-17T13:13:48;-2.60;99.90
18898;DHT22;9581;49.484;8.556;2022-12-17T13:16:31;-2.80;99.90
18898;DHT22;9581;49.484;8.556;2022-12-17T13:19:16;-2.70;99.90
18898;DHT22;9581;49.484;8.556;2022-12-17T13:21:44;-2.90;99.90
18898;DHT22;9581;49.484;8.556;2022-12-17T13:24:20;-3.20;99.90
18898;DHT22;9581;49.484;8.556;2022-12-17T13:26:48;-3.30;99.90
18898;DHT22;9581;49.484;8.556;2022-12-17T13:29:26;-3.10;99.90
18898;DHT22;9581;49.484;8.556;2022-12-17T13:32:05;-3.00;99.90
18898;DHT22;9581;49.484;8.556;2022-12-17T13:34:42;-2.90;99.90
18898;DHT22;9581;49.484;8.556;2022-12-17T13:37:20;-2.90;99.90
18898;DHT22;9581;49.484;8.556;2022-12-17T13:39:54;-2.90;99.90
18898;DHT22;9581;49.484;8.556;2022-12-17T13:42:27;-2.90;99.90
18898;DHT22;9581;49.484;8.556;2022-12-17T13:44:55;-2.80;99.90
18898;DHT22;9581;49.484;8.556;2022-12-17T13:47:26;-2.90;99.90
18898;DHT22;9581;49.484;8.556;2022-12-17T13:49:56;-2.90;99.90
18898;DHT22;9581;49.484;8.556;2022-12-17T13:52:25;-2.90;99.90
18898;DHT22;9581;49.484;8.556;2022-12-17T13:54:52;-2.90;99.90
18898;DHT22;9581;49.484;8.556;2022-12-17T13:57:21;-2.80;99.90
18898;DHT22;9581;49.484;8.556;2022-12-17T13:59:50;-2.80;99.90
18898;DHT22;9581;49.484;8.556;2022-12-17T14:02:27;-2.80;99.90
18898;DHT22;9581;49.484;8.556;2022-12-17T14:04:56;-2.70;99.90
18898;DHT22;9581;49.484;8.556;2022-12-17T14:07:23;-2.70;99.90
18898;DHT22;9581;49.484;8.556;2022-12-17T14:09:52;-3.10;99.90
18898;DHT22;9581;49.484;8.556;2022-12-17T14:12:21;-3.20;99.90
18898;DHT22;9581;49.484;8.556;2022-12-17T14:14:50;-3.00;99.90
18898;DHT22;9581;49.484;8.556;2022-12-17T14:17:20;-2.80;99.90
18898;DHT22;9581;49.484;8.556;2022-12-17T14:19:53;-2.80;99.90
18898;DHT22;9581;49.484;8.556;2022-12-17T14:22:29;-2.80;99.90
18898;DHT22;9581;49.484;8.556;2022-12-17T14:24:58;-2.90;99.90
18898;DHT22;9581;49.484;8.556;2022-12-17T14:27:29;-3.10;99.90
18898;DHT22;9581;49.484;8.556;2022-12-17T14:29:57;-2.90;99.90
18898;DHT22;9581;49.484;8.556;2022-12-17T14:32:28;-2.80;99.90
18898;DHT22;9581;49.484;8.556;2022-12-17T14:34:57;-4.20;99.90
18898;DHT22;9581;49.484;8.556;2022-12-17T14:37:25;-4.50;99.90
18898;DHT22;9581;49.484;8.556;2022-12-17T14:39:55;-3.80;99.90
18898;DHT22;9581;49.484;8.556;2022-12-17T14:42:24;-3.50;99.90
18898;DHT22;9581;49.484;8.556;2022-12-17T14:44:52;-3.40;99.90
18898;DHT22;9581;49.484;8.556;2022-12-17T14:47:21;-4.00;99.90
18898;DHT22;9581;49.484;8.556;2022-12-17T14:50:03;-4.00;99.90
18898;DHT22;9581;49.484;8.556;2022-12-17T14:52:36;-3.80;99.90
18898;DHT22;9581;49.484;8.556;2022-12-17T14:55:28;-4.00;99.90
18898;DHT22;9581;49.484;8.556;2022-12-17T14:58:17;-4.10;99.90
18898;DHT22;9581;49.484;8.556;2022-12-17T15:00:46;-4.60;99.90
18898;DHT22;9581;49.484;8.556;2022-12-17T15:03:18;-4.20;99.90
18898;DHT22;9581;49.484;8.556;2022-12-17T15:05:49;-4.00;99.90
18898;DHT22;9581;49.484;8.556;2022-12-17T15:08:17;-3.70;99.90
18898;DHT22;9581;49.484;8.556;2022-12-17T15:10:43;-3.60;99.90
18898;DHT22;9581;49.484;8.556;2022-12-17T15:13:10;-3.60;99.90
18898;DHT22;9581;49.484;8.556;2022-12-17T15:15:37;-3.40;99.90
18898;DHT22;9581;49.484;8.556;2022-12-17T15:18:04;-3.50;99.90
18898;DHT22;9581;49.484;8.556;2022-12-17T15:20:31;-3.50;99.90
18898;DHT22;9581;49.484;8.556;2022-12-17T15:22:59;-3.40;99.90
18898;DHT22;9581;49.484;8.556;2022-12-17T15:25:26;-3.30;99.90
18898;DHT22;9581;49.484;8.556;2022-12-17T15:27:53;-3.50;99.90
18898;DHT22;9581;49.484;8.556;2022-12-17T15:30:20;-3.50;99.90
18898;DHT22;9581;49.484;8.556;2022-12-17T15:32:47;-3.50;99.90
18898;DHT22;9581;49.484;8.556;2022-12-17T15:35:14;-4.20;99.90
18898;DHT22;9581;49.484;8.556;2022-12-17T15:37:41;-4.10;99.90
18898;DHT22;9581;49.484;8.556;2022-12-17T15:40:09;-4.50;99.90
18898;DHT22;9581;49.484;8.556;2022-12-17T15:42:36;-4.40;99.90
18898;DHT22;9581;49.484;8.556;2022-12-17T15:45:20;-4.20;99.90
18898;DHT22;9581;49.484;8.556;2022-12-17T15:47:50;-4.00;99.90
18898;DHT22;9581;49.484;8.556;2022-12-17T15:50:17;-4.30;99.90
18898;DHT22;9581;49.484;8.556;2022-12-17T15:52:44;-4.00;99.90
18898;DHT22;9581;49.484;8.556;2022-12-17T15:55:13;-3.60;99.90
18898;DHT22;9581;49.484;8.556;2022-12-17T15:57:39;-3.60;99.90
18898;DHT22;9581;49.484;8.556;2022-12-17T16:00:07;-3.80;99.90
18898;DHT22;9581;49.484;8.556;2022-12-17T16:02:34;-3.70;99.90
18898;DHT22;9581;49.484;8.556;2022-12-17T16:05:01;-3.60;99.90
18898;DHT22;9581;49.484;8.556;2022-12-17T16:07:28;-3.50;99.90
18898;DHT22;9581;49.484;8.556;2022-12-17T16:09:54;-3.60;99.90
18898;DHT22;9581;49.484;8.556;2022-12-17T16:12:23;-3.70;99.90
18898;DHT22;9581;49.484;8.556;2022-12-17T16:14:49;-3.50;99.90
18898;DHT22;9581;49.484;8.556;2022-12-17T16:17:16;-3.40;99.90
18898;DHT22;9581;49.484;8.556;2022-12-17T16:19:43;-3.40;99.90
18898;DHT22;9581;49.484;8.556;2022-12-17T16:22:10;-3.40;99.90
18898;DHT22;9581;49.484;8.556;2022-12-17T16:24:36;-3.50;99.90
18898;DHT22;9581;49.484;8.556;2022-12-17T16:27:03;-3.60;99.90
18898;DHT22;9581;49.484;8.556;2022-12-17T16:29:31;-3.50;99.90
18898;DHT22;9581;49.484;8.556;2022-12-17T16:31:58;-3.60;99.90
18898;DHT22;9581;49.484;8.556;2022-12-17T16:34:25;-3.50;99.90
18898;DHT22;9581;49.484;8.556;2022-12-17T16:36:52;-3.80;99.90
18898;DHT22;9581;49.484;8.556;2022-12-17T16:39:19;-4.00;99.90
18898;DHT22;9581;49.484;8.556;2022-12-17T16:41:46;-3.90;99.90
18898;DHT22;9581;49.484;8.556;2022-12-17T16:44:13;-3.70;99.90
18898;DHT22;9581;49.484;8.556;2022-12-17T16:46:42;-3.60;99.90
18898;DHT22;9581;49.484;8.556;2022-12-17T16:49:12;-3.70;99.90
18898;DHT22;9581;49.484;8.556;2022-12-17T16:51:40;-3.80;99.90
18898;DHT22;9581;49.484;8.556;2022-12-17T16:54:09;-3.80;99.90
18898;DHT22;9581;49.484;8.556;2022-12-17T16:56:37;-3.80;99.90
18898;DHT22;9581;49.484;8.556;2022-12-17T16:59:04;-3.90;99.90
18898;DHT22;9581;49.484;8.556;2022-12-17T17:01:33;-3.90;99.90
18898;DHT22;9581;49.484;8.556;2022-12-17T17:04:03;-3.80;99.90
18898;DHT22;9581;49.484;8.556;2022-12-17T17:06:30;-3.70;99.90
18898;DHT22;9581;49.484;8.556;2022-12-17T17:08:57;-3.80;99.90
18898;DHT22;9581;49.484;8.556;2022-12-17T17:11:24;-3.70;99.90
18898;DHT22;9581;49.484;8.556;2022-12-17T17:13:52;-3.60;99.90
18898;DHT22;9581;49.484;8.556;2022-12-17T17:16:22;-3.70;99.90
18898;DHT22;9581;49.484;8.556;2022-12-17T17:18:50;-3.70;99.90
18898;DHT22;9581;49.484;8.556;2022-12-17T17:21:26;-3.90;99.90